Main page
METAR-TAF:

METAR-TAF

Airports :

Norwich Airport

Norwich, England

latitude: 52-38N, longitude: 001-18E, elevation: 14 m

Current weather observation

The report was made 20 minutes ago, at 05:20 UTC
Wind 9 kt from the West
Temperature 16°C
Humidity 88%
Pressure 1012 hPa
Visibility 10 km or more
Scattered clouds at a height of 600 ft

METAR: EGSH 170520Z 26009KT 9999 SCT006 16/14 Q1012 NOSIG

Time: 06:40 (05:40 UTC)

Forecast

The report was made 47 minutes ago, at 04:53 UTC
Forecast valid from 17 at 06 UTC to 17 at 15 UTC
Wind 5 kt from the West/Southwest
Visibility 10 km or more
Few clouds at a height of 4500 ft
Probability 30% :
Temporary
from 17 at 06 UTC to 17 at 08 UTC
Broken clouds at a height of 1200 ft

TAF: EGSH 170453Z 1706/1715 25005KT 9999 FEW045 PROB30 TEMPO 1706/1708 BKN012

Weather observations and forecasts of more than 4000 airports (METAR and TAF reports).

The available stations are represented by yellow and red dots on the map.

Hover mouse over dot to see the name of the station.

Then click to see weather observations and forecasts.

To change the map : click on the green buttons with a black cross to zoom in, on the green button with a dash to zoom out, or on the green arrows for adjacent maps.


METAR-TAF: